Time;durP1;ratioP1;P1;durP2;ratioP2;P2;SDS_P1;SDS_P2;PMS_P1;PMS_P2;Temp;Humidity;BMP_temperature;BMP_pressure;BME280_temperature;BME280_humidity;BME280_pressure;Samples;Min_cycle;Max_cycle;Signal;HPM_P1;HPM_P2
2022/11/01 00:01:28;;;;;;;46.05;26.35;;;15.00;99.90;;;;;;4921125;29;20036;-64
2022/11/01 00:03:54;;;;;;;39.15;23.45;;;15.00;99.90;;;;;;4922094;29;20126;-63
2022/11/01 00:06:20;;;;;;;38.20;23.92;;;15.00;99.90;;;;;;4924323;29;20039;-64
2022/11/01 00:08:46;;;;;;;32.42;21.77;;;15.00;99.90;;;;;;4923214;29;20471;-63
2022/11/01 00:11:14;;;;;;;38.60;22.27;;;15.00;99.90;;;;;;4924209;29;20042;-64
2022/11/01 00:13:40;;;;;;;47.70;24.83;;;15.00;99.90;;;;;;4922902;29;20118;-64
2022/11/01 00:16:06;;;;;;;36.67;23.75;;;15.00;99.90;;;;;;4919186;29;20032;-64
2022/11/01 00:18:32;;;;;;;38.60;22.65;;;15.00;99.80;;;;;;4921961;29;20114;-64
2022/11/01 00:20:57;;;;;;;38.22;23.25;;;15.00;99.90;;;;;;4920367;29;20075;-64
2022/11/01 00:23:23;;;;;;;37.97;24.33;;;14.90;99.90;;;;;;4921761;29;20035;-64
2022/11/01 00:25:49;;;;;;;42.15;25.52;;;14.90;99.90;;;;;;4923492;29;20031;-64
2022/11/01 00:28:15;;;;;;;37.97;24.35;;;14.90;99.90;;;;;;4923584;29;20039;-64
2022/11/01 00:30:41;;;;;;;45.72;24.95;;;14.90;99.90;;;;;;4924523;29;20066;-64
2022/11/01 00:33:07;;;;;;;46.80;24.40;;;14.80;99.90;;;;;;4917304;29;20051;-64
2022/11/01 00:35:35;;;;;;;40.70;25.00;;;14.80;99.90;;;;;;4923647;29;20705;-64
2022/11/01 00:38:02;;;;;;;45.88;24.13;;;14.80;99.90;;;;;;4920379;29;20058;-64
2022/11/01 00:40:27;;;;;;;46.50;25.40;;;14.80;99.90;;;;;;4922879;29;20075;-64
2022/11/01 00:42:53;;;;;;;42.15;24.65;;;14.70;99.90;;;;;;4921251;29;20035;-64
2022/11/01 00:45:19;;;;;;;32.03;22.77;;;14.70;99.90;;;;;;4922464;29;20028;-64
2022/11/01 00:47:46;;;;;;;38.25;21.83;;;14.70;99.90;;;;;;4924688;29;20042;-64
2022/11/01 00:50:12;;;;;;;39.40;22.35;;;14.70;99.90;;;;;;4922817;29;20035;-64
2022/11/01 00:52:38;;;;;;;38.55;21.30;;;14.60;99.90;;;;;;4921294;29;20031;-64
2022/11/01 00:55:04;;;;;;;38.90;23.35;;;14.60;99.90;;;;;;4918686;29;20075;-64
2022/11/01 00:57:30;;;;;;;41.67;24.15;;;14.60;99.90;;;;;;4921879;29;20063;-64
2022/11/01 00:59:55;;;;;;;38.75;21.13;;;14.60;99.90;;;;;;4919256;29;20127;-64
2022/11/01 01:02:21;;;;;;;37.42;20.75;;;14.50;99.90;;;;;;4923022;29;20563;-64
2022/11/01 01:04:48;;;;;;;34.83;21.50;;;14.60;99.90;;;;;;4922395;29;20050;-64
2022/11/01 01:07:13;;;;;;;35.33;20.83;;;14.50;99.90;;;;;;4921680;29;20055;-64
2022/11/01 01:09:39;;;;;;;38.55;24.80;;;14.50;99.90;;;;;;4923718;29;20028;-64
2022/11/01 01:12:05;;;;;;;37.25;22.00;;;14.50;99.90;;;;;;4921617;29;20063;-65
2022/11/01 01:14:31;;;;;;;34.28;21.67;;;14.50;99.90;;;;;;4919254;29;20560;-64
2022/11/01 01:16:57;;;;;;;35.75;21.85;;;14.40;99.90;;;;;;4920506;29;20818;-64
2022/11/01 01:19:22;;;;;;;35.42;21.73;;;14.40;99.90;;;;;;4921044;29;20046;-64
2022/11/01 01:21:48;;;;;;;31.23;19.42;;;14.30;99.90;;;;;;4922189;29;20027;-64
2022/11/01 01:24:14;;;;;;;38.28;21.60;;;14.40;99.90;;;;;;4923195;29;20039;-64
2022/11/01 01:26:39;;;;;;;30.77;19.42;;;14.40;99.90;;;;;;4925557;29;20039;-63
2022/11/01 01:29:05;;;;;;;37.08;21.77;;;14.30;99.90;;;;;;4922210;29;20035;-64
2022/11/01 01:31:31;;;;;;;32.92;21.88;;;14.30;99.90;;;;;;4922218;29;20024;-64
2022/11/01 01:33:57;;;;;;;40.83;21.52;;;14.30;99.90;;;;;;4923677;29;20040;-64
2022/11/01 01:36:23;;;;;;;40.63;22.73;;;14.30;99.90;;;;;;4920064;29;20036;-65
2022/11/01 01:38:54;;;;;;;40.58;23.05;;;14.30;99.90;;;;;;4922123;29;20024;-65
2022/11/01 01:44:46;;;;;;;43.13;22.30;;;14.10;99.90;;;;;;4925000;29;20035;-66
2022/11/01 01:47:34;;;;;;;34.58;21.73;;;14.10;99.90;;;;;;4902910;29;20055;-65
2022/11/01 01:50:15;;;;;;;39.30;22.02;;;14.10;99.90;;;;;;4920830;29;20134;-66
2022/11/01 01:53:07;;;;;;;39.53;23.48;;;14.20;99.90;;;;;;4920638;29;20032;-64
2022/11/01 01:55:56;;;;;;;38.65;22.63;;;14.20;99.90;;;;;;4919081;29;20027;-65
2022/11/01 01:58:26;;;;;;;35.63;20.45;;;14.20;99.90;;;;;;4920237;29;20063;-63
2022/11/01 02:00:52;;;;;;;40.88;23.65;;;14.20;99.90;;;;;;4921402;29;20044;-64
2022/11/01 02:03:19;;;;;;;37.00;22.58;;;14.20;99.90;;;;;;4921253;29;20127;-64
2022/11/01 02:05:49;;;;;;;39.97;22.40;;;14.20;99.90;;;;;;4919214;29;20036;-64
2022/11/01 02:08:25;;;;;;;40.05;21.63;;;14.20;99.90;;;;;;4917610;29;20036;-64
2022/11/01 02:11:02;;;;;;;34.83;21.38;;;14.20;99.90;;;;;;4922560;29;20032;-65
2022/11/01 02:13:29;;;;;;;39.72;21.40;;;14.20;99.90;;;;;;4921595;29;20218;-64
2022/11/01 02:16:15;;;;;;;30.88;20.00;;;14.20;99.90;;;;;;4922556;29;20036;-64
2022/11/01 02:19:02;;;;;;;34.05;19.17;;;14.10;99.90;;;;;;4921635;29;20163;-64
2022/11/01 02:21:27;;;;;;;31.10;19.02;;;14.10;99.90;;;;;;4921544;29;20079;-64
2022/11/01 02:24:11;;;;;;;35.50;19.67;;;14.10;99.90;;;;;;4921680;29;20090;-64
2022/11/01 02:27:07;;;;;;;32.75;19.45;;;14.10;99.90;;;;;;4924010;29;20036;-64
2022/11/01 02:29:50;;;;;;;27.45;18.77;;;14.10;99.90;;;;;;4923928;29;20036;-63
2022/11/01 02:32:39;;;;;;;28.65;18.48;;;14.10;99.90;;;;;;4925566;29;20036;-64
2022/11/01 02:35:14;;;;;;;26.17;17.77;;;14.10;99.90;;;;;;4923969;29;20031;-64
2022/11/01 02:38:01;;;;;;;35.03;18.95;;;14.00;99.90;;;;;;4926618;29;20119;-64
2022/11/01 02:40:56;;;;;;;30.80;20.20;;;14.00;99.90;;;;;;4926182;29;20620;-64
2022/11/01 02:43:33;;;;;;;37.70;22.42;;;14.00;99.90;;;;;;4919379;29;20083;-63
2022/11/01 02:46:59;;;;;;;30.35;18.73;;;14.00;99.90;;;;;;4924205;29;20035;-64
2022/11/01 02:48:48;;;;;;;33.22;20.08;;;14.00;99.90;;;;;;4924563;29;20044;-64
2022/11/01 02:51:19;;;;;;;27.35;17.52;;;14.00;99.90;;;;;;4923300;29;20748;-64
2022/11/01 02:53:44;;;;;;;28.95;17.60;;;14.00;99.90;;;;;;4926244;29;20032;-64
2022/11/01 02:56:10;;;;;;;25.10;16.80;;;14.00;99.90;;;;;;4924450;29;20196;-64
2022/11/01 02:58:36;;;;;;;25.30;16.55;;;14.00;99.90;;;;;;4925142;29;20075;-64
2022/11/01 03:01:13;;;;;;;28.05;17.80;;;14.00;99.90;;;;;;4925957;29;20046;-64
2022/11/01 03:03:44;;;;;;;32.15;17.58;;;14.00;99.90;;;;;;4923263;29;20039;-64
2022/11/01 03:06:26;;;;;;;28.20;17.20;;;13.90;99.80;;;;;;4921606;29;20044;-64
2022/11/01 03:08:59;;;;;;;28.85;17.90;;;13.90;99.90;;;;;;4923780;29;20054;-64
2022/11/01 03:11:46;;;;;;;26.30;16.65;;;13.90;99.90;;;;;;4922504;29;20044;-64
2022/11/01 03:14:36;;;;;;;30.25;18.08;;;13.80;99.90;;;;;;4925877;29;20119;-64
2022/11/01 03:17:10;;;;;;;31.10;19.55;;;13.80;99.90;;;;;;4925110;29;20040;-64
2022/11/01 03:19:42;;;;;;;31.38;18.95;;;13.80;99.70;;;;;;4926342;29;20039;-64
2022/11/01 03:22:16;;;;;;;30.73;20.05;;;13.80;99.70;;;;;;4922678;29;20035;-64
2022/11/01 03:25:05;;;;;;;32.75;20.33;;;13.70;99.90;;;;;;4922652;29;20142;-64
2022/11/01 03:27:38;;;;;;;29.30;18.48;;;13.70;99.90;;;;;;4925144;29;20389;-64
2022/11/01 03:30:08;;;;;;;35.08;19.52;;;13.80;99.90;;;;;;4922742;29;20051;-64
2022/11/01 03:32:40;;;;;;;30.40;20.48;;;13.80;99.90;;;;;;4924030;29;20031;-64
2022/11/01 03:35:09;;;;;;;35.13;21.13;;;13.80;99.90;;;;;;4925645;29;20047;-64
2022/11/01 03:37:39;;;;;;;32.78;19.85;;;13.80;99.90;;;;;;4925748;29;20135;-63
2022/11/01 03:40:09;;;;;;;36.28;21.10;;;13.80;99.90;;;;;;4924165;29;20532;-64
2022/11/01 03:42:38;;;;;;;34.38;21.10;;;13.80;99.90;;;;;;4921988;29;20051;-64
2022/11/01 03:45:09;;;;;;;35.60;19.63;;;13.80;99.90;;;;;;4920392;29;20613;-64
2022/11/01 03:47:35;;;;;;;34.63;18.42;;;13.80;99.90;;;;;;4922974;29;20051;-64
2022/11/01 03:50:12;;;;;;;27.50;18.60;;;13.80;99.90;;;;;;4923062;29;20047;-64
2022/11/01 03:52:38;;;;;;;28.23;17.90;;;13.80;99.90;;;;;;4924252;29;20028;-64
2022/11/01 03:55:16;;;;;;;25.23;16.65;;;13.80;99.90;;;;;;4925097;29;20846;-63
2022/11/01 03:57:47;;;;;;;29.38;18.77;;;13.70;99.90;;;;;;4923908;29;20028;-63
2022/11/01 04:00:15;;;;;;;26.45;17.75;;;13.70;99.90;;;;;;4921973;29;20031;-63
2022/11/01 04:02:42;;;;;;;25.95;17.08;;;13.70;99.90;;;;;;4923303;29;20038;-63
2022/11/01 04:05:08;;;;;;;29.85;19.08;;;13.60;99.90;;;;;;4924705;29;20039;-63
2022/11/01 04:07:34;;;;;;;29.52;18.80;;;13.60;99.90;;;;;;4921294;29;20035;-63
2022/11/01 04:10:00;;;;;;;28.45;19.23;;;13.60;99.90;;;;;;4923247;29;20032;-63
2022/11/01 04:12:26;;;;;;;24.40;16.98;;;13.60;99.90;;;;;;4924131;29;20032;-64
2022/11/01 04:20:33;;;;;;;26.10;17.00;;;13.60;99.90;;;;;;4921730;29;20090;-64
2022/11/01 04:22:59;;;;;;;26.77;17.50;;;13.50;99.90;;;;;;4926371;29;20038;-64
2022/11/01 04:25:25;;;;;;;27.63;17.58;;;13.50;99.80;;;;;;4926045;29;20400;-64
2022/11/01 04:27:50;;;;;;;27.13;18.40;;;13.50;99.90;;;;;;4923473;29;20036;-64
2022/11/01 04:30:16;;;;;;;33.35;20.08;;;13.50;99.90;;;;;;4922829;29;20039;-64
2022/11/01 04:32:43;;;;;;;32.03;19.10;;;13.50;99.90;;;;;;4924260;29;20029;-64
2022/11/01 04:35:12;;;;;;;29.25;18.90;;;13.50;99.90;;;;;;4921139;29;20404;-64
2022/11/01 04:37:37;;;;;;;33.05;19.35;;;13.50;99.90;;;;;;4924371;29;20133;-64
2022/11/01 04:40:06;;;;;;;31.63;18.88;;;13.50;99.90;;;;;;4917790;29;20048;-64
2022/11/01 04:42:36;;;;;;;42.85;20.98;;;13.50;99.90;;;;;;4924755;29;20059;-64
2022/11/01 04:45:07;;;;;;;41.55;22.10;;;13.60;99.90;;;;;;4918507;29;20082;-64
2022/11/01 04:47:33;;;;;;;41.58;22.02;;;13.60;99.90;;;;;;4921152;29;20038;-64
2022/11/01 04:49:59;;;;;;;33.15;21.33;;;13.70;99.90;;;;;;4921568;29;20039;-64
2022/11/01 04:52:26;;;;;;;40.08;22.10;;;13.70;99.90;;;;;;4923337;29;20039;-64
2022/11/01 04:54:51;;;;;;;37.97;21.70;;;13.70;99.90;;;;;;4918307;29;20087;-64
2022/11/01 04:57:23;;;;;;;41.38;22.38;;;13.70;99.90;;;;;;4921975;29;20804;-64
2022/11/01 04:59:53;;;;;;;35.55;20.95;;;13.70;99.90;;;;;;4919191;29;20403;-64
2022/11/01 05:02:20;;;;;;;35.17;21.08;;;13.70;99.90;;;;;;4921975;29;20023;-63
2022/11/01 05:04:46;;;;;;;37.20;22.35;;;13.70;99.90;;;;;;4920095;29;20767;-65
2022/11/01 05:07:13;;;;;;;36.05;20.08;;;13.70;99.90;;;;;;4936618;29;20032;-63
2022/11/01 05:09:39;;;;;;;32.90;20.30;;;13.70;99.90;;;;;;4920509;29;20028;-63
2022/11/01 05:12:06;;;;;;;34.92;21.45;;;13.70;99.90;;;;;;4920133;29;20043;-64
2022/11/01 05:14:31;;;;;;;32.28;20.90;;;13.70;99.90;;;;;;4920715;29;20594;-64
2022/11/01 05:16:57;;;;;;;35.40;21.00;;;13.70;99.90;;;;;;4919133;29;20039;-64
2022/11/01 05:19:23;;;;;;;36.53;22.33;;;13.80;99.90;;;;;;4922872;29;20438;-64
2022/11/01 05:21:50;;;;;;;39.50;20.75;;;13.80;99.90;;;;;;4920298;29;20027;-64
2022/11/01 05:24:15;;;;;;;33.42;20.55;;;13.70;99.90;;;;;;4919931;29;20028;-64
2022/11/01 05:26:41;;;;;;;34.33;20.17;;;13.70;99.90;;;;;;4921700;29;20087;-64
2022/11/01 05:29:07;;;;;;;37.40;20.00;;;13.70;99.90;;;;;;4922216;29;20568;-64
2022/11/01 05:31:33;;;;;;;33.15;20.75;;;13.70;99.90;;;;;;4917759;29;20062;-62
2022/11/01 05:33:59;;;;;;;39.80;22.10;;;13.70;99.90;;;;;;4917171;29;20039;-64
2022/11/01 05:36:25;;;;;;;36.67;22.20;;;13.80;99.90;;;;;;4918685;29;20799;-64
2022/11/01 05:38:54;;;;;;;34.92;22.17;;;13.70;99.90;;;;;;4920650;29;20043;-67
2022/11/01 05:41:20;;;;;;;33.08;21.52;;;13.70;99.90;;;;;;4920530;29;20047;-64
2022/11/01 05:43:45;;;;;;;33.00;19.17;;;13.70;99.90;;;;;;4924258;29;20511;-64
2022/11/01 05:46:11;;;;;;;33.88;20.70;;;13.70;99.90;;;;;;4919225;29;20028;-64
2022/11/01 05:48:37;;;;;;;30.85;20.15;;;13.80;99.90;;;;;;4921097;29;20539;-64
2022/11/01 05:51:02;;;;;;;36.55;20.02;;;13.80;99.90;;;;;;4911222;29;20035;-63
2022/11/01 05:53:28;;;;;;;40.72;22.33;;;13.80;99.90;;;;;;4922138;29;20027;-73
2022/11/01 05:55:57;;;;;;;36.00;22.80;;;13.90;99.90;;;;;;4922208;29;20031;-69
2022/11/01 05:58:22;;;;;;;36.67;21.50;;;13.90;99.90;;;;;;4917007;29;20020;-70
2022/11/01 06:00:48;;;;;;;38.08;22.65;;;13.80;99.90;;;;;;4921556;29;20346;-68
2022/11/01 06:03:14;;;;;;;36.80;21.50;;;13.80;99.90;;;;;;4919815;29;20038;-68
2022/11/01 06:05:39;;;;;;;30.08;20.40;;;13.80;99.90;;;;;;4921467;29;20058;-69
2022/11/01 06:08:06;;;;;;;32.22;20.80;;;13.80;99.90;;;;;;4920490;29;20764;-69
2022/11/01 06:10:32;;;;;;;37.88;21.88;;;13.80;99.90;;;;;;4918606;29;20825;-69
2022/11/01 06:12:58;;;;;;;33.22;20.48;;;13.80;99.90;;;;;;4915169;29;20044;-69
2022/11/01 06:15:24;;;;;;;33.50;20.10;;;13.80;99.90;;;;;;4922374;29;20027;-68
2022/11/01 06:17:57;;;;;;;31.67;19.63;;;13.90;99.90;;;;;;4921442;29;20062;-67
2022/11/01 06:20:23;;;;;;;29.13;18.42;;;13.90;99.90;;;;;;4920728;29;20090;-69
2022/11/01 06:22:49;;;;;;;36.60;21.92;;;13.90;99.90;;;;;;4923584;29;20056;-68
2022/11/01 06:25:15;;;;;;;31.77;21.67;;;13.90;99.90;;;;;;4920567;29;20032;-67
2022/11/01 06:27:40;;;;;;;32.65;19.23;;;13.90;99.90;;;;;;4923444;29;20642;-67
2022/11/01 06:30:07;;;;;;;34.47;20.73;;;13.80;99.90;;;;;;4922290;29;20043;-71
2022/11/01 06:32:33;;;;;;;30.70;18.33;;;13.80;99.90;;;;;;4921356;29;20046;-64
2022/11/01 06:34:58;;;;;;;32.80;21.75;;;13.80;99.90;;;;;;4921445;29;20031;-64
2022/11/01 06:37:24;;;;;;;33.15;19.02;;;13.80;99.90;;;;;;4921884;29;20031;-63
2022/11/01 06:39:50;;;;;;;34.63;20.20;;;13.80;99.90;;;;;;4919412;29;20127;-64
2022/11/01 06:42:16;;;;;;;28.08;18.58;;;13.90;99.90;;;;;;4921889;29;20030;-64
2022/11/01 06:44:41;;;;;;;30.77;20.02;;;13.90;99.90;;;;;;4920330;29;20036;-67
2022/11/01 06:47:07;;;;;;;34.08;20.38;;;14.00;99.90;;;;;;4916670;29;20043;-68
2022/11/01 06:49:33;;;;;;;31.40;19.02;;;13.90;99.90;;;;;;4916497;29;20040;-67
2022/11/01 06:51:59;;;;;;;29.38;18.80;;;14.00;99.90;;;;;;4919258;29;20039;-68
2022/11/01 06:54:25;;;;;;;28.63;18.58;;;13.90;99.90;;;;;;4918720;29;20028;-68
2022/11/01 06:56:51;;;;;;;26.83;17.70;;;13.90;99.90;;;;;;4921578;29;20495;-68
2022/11/01 06:59:16;;;;;;;26.95;17.90;;;14.00;99.90;;;;;;4918564;29;20075;-68
2022/11/01 07:01:43;;;;;;;31.67;18.83;;;14.00;99.90;;;;;;4921654;29;20039;-68
2022/11/01 07:04:08;;;;;;;29.08;19.42;;;14.10;99.90;;;;;;4921422;29;20068;-69
2022/11/01 07:06:34;;;;;;;28.30;17.80;;;14.10;99.90;;;;;;4917700;29;20032;-68
2022/11/01 07:09:00;;;;;;;27.58;17.40;;;14.10;99.80;;;;;;4918909;29;20513;-68
2022/11/01 07:11:26;;;;;;;29.70;18.67;;;14.20;99.80;;;;;;4916928;29;20044;-68
2022/11/01 07:13:52;;;;;;;28.92;17.88;;;14.20;99.80;;;;;;4930664;29;20079;-68
2022/11/01 07:16:18;;;;;;;33.38;19.40;;;14.20;99.80;;;;;;4925973;29;20043;-68
2022/11/01 07:18:43;;;;;;;29.90;18.30;;;14.30;99.60;;;;;;4925506;29;20487;-71
2022/11/01 07:21:09;;;;;;;30.15;17.55;;;14.30;99.40;;;;;;4922486;29;20071;-69
2022/11/01 07:23:35;;;;;;;25.52;17.40;;;14.30;99.60;;;;;;4924075;29;20070;-69
2022/11/01 07:26:01;;;;;;;28.50;18.17;;;14.20;99.50;;;;;;4918285;29;20067;-69
2022/11/01 07:28:27;;;;;;;27.30;17.13;;;14.30;99.50;;;;;;4922089;29;20032;-65
2022/11/01 07:30:54;;;;;;;30.27;18.42;;;14.20;99.40;;;;;;4919046;29;20043;-66
2022/11/01 07:33:20;;;;;;;28.80;18.23;;;14.20;99.20;;;;;;4921047;29;20035;-65
2022/11/01 07:35:47;;;;;;;28.20;18.05;;;14.20;99.20;;;;;;4924134;29;20027;-63
2022/11/01 07:38:13;;;;;;;30.23;17.13;;;14.20;99.30;;;;;;4923626;29;20043;-72
2022/11/01 07:40:39;;;;;;;26.15;17.17;;;14.20;99.30;;;;;;4924299;29;20043;-66
2022/11/01 07:43:05;;;;;;;30.05;17.58;;;14.30;99.30;;;;;;4920719;29;20044;-64
2022/11/01 07:45:33;;;;;;;25.70;15.65;;;14.30;99.10;;;;;;4926090;29;20031;-71
2022/11/01 07:48:01;;;;;;;28.40;16.67;;;14.30;98.80;;;;;;4925960;29;20411;-68
2022/11/01 07:50:31;;;;;;;26.75;17.42;;;14.40;98.90;;;;;;4923174;29;20040;-68
2022/11/01 07:53:09;;;;;;;25.58;16.20;;;14.40;99.00;;;;;;4923940;29;20560;-66
2022/11/01 07:55:35;;;;;;;25.23;16.90;;;14.40;99.00;;;;;;4920379;29;20023;-65
2022/11/01 07:58:01;;;;;;;27.52;17.50;;;14.50;99.00;;;;;;4925527;29;20118;-65
2022/11/01 08:00:27;;;;;;;23.92;16.48;;;14.60;99.00;;;;;;4924553;29;20031;-66
2022/11/01 08:03:11;;;;;;;26.17;17.17;;;14.70;98.80;;;;;;4924565;29;20044;-65
2022/11/01 08:05:37;;;;;;;27.75;16.15;;;14.70;98.70;;;;;;4922366;29;20053;-65
2022/11/01 08:08:04;;;;;;;25.40;16.10;;;14.70;98.70;;;;;;4924339;29;20039;-74
2022/11/01 08:10:31;;;;;;;28.05;17.42;;;14.70;98.80;;;;;;4923265;29;20043;-65
2022/11/01 08:13:22;;;;;;;28.65;17.25;;;14.80;99.00;;;;;;4922503;29;20086;-65
2022/11/01 08:15:50;;;;;;;23.67;15.57;;;14.80;98.70;;;;;;4920545;29;20086;-65
2022/11/01 08:18:17;;;;;;;26.48;15.48;;;14.90;98.60;;;;;;4921067;29;20135;-65
2022/11/01 08:20:43;;;;;;;25.75;16.30;;;14.90;98.40;;;;;;4938824;29;20059;-65
2022/11/01 08:23:10;;;;;;;25.98;15.95;;;14.90;98.60;;;;;;4917115;29;20118;-65
2022/11/01 08:25:36;;;;;;;28.83;17.23;;;15.00;98.40;;;;;;4919208;29;20038;-65
2022/11/01 08:28:12;;;;;;;26.38;15.40;;;15.00;98.40;;;;;;4924805;29;20500;-65
2022/11/01 08:30:39;;;;;;;24.33;15.50;;;15.10;98.00;;;;;;4922000;29;20048;-66
2022/11/01 08:33:05;;;;;;;22.88;14.85;;;15.00;98.00;;;;;;4923282;29;20046;-65
2022/11/01 08:35:32;;;;;;;23.33;14.27;;;15.10;98.10;;;;;;4923634;29;20471;-65
2022/11/01 08:37:58;;;;;;;25.85;15.45;;;15.20;97.70;;;;;;4919563;29;20040;-65
2022/11/01 08:40:25;;;;;;;19.90;14.02;;;15.20;97.70;;;;;;4915598;29;20051;-66
2022/11/01 08:42:51;;;;;;;20.45;13.50;;;15.20;97.80;;;;;;4920382;29;20404;-65
2022/11/01 08:45:17;;;;;;;24.83;15.05;;;15.30;97.90;;;;;;4921698;29;20028;-65
2022/11/01 08:47:43;;;;;;;22.30;14.18;;;15.40;97.70;;;;;;4923152;29;20023;-65
2022/11/01 08:50:12;;;;;;;24.17;13.98;;;15.50;97.50;;;;;;4920637;29;20031;-65
2022/11/01 08:52:38;;;;;;;18.58;13.55;;;15.50;97.10;;;;;;4919243;29;20191;-65
2022/11/01 08:55:04;;;;;;;25.20;14.15;;;15.60;97.20;;;;;;4921007;29;20039;-65
2022/11/01 08:57:30;;;;;;;22.45;13.90;;;15.70;97.10;;;;;;4922372;29;20051;-65
2022/11/01 08:59:56;;;;;;;20.90;13.73;;;15.80;97.00;;;;;;4932073;29;20074;-65
2022/11/01 09:02:22;;;;;;;21.83;13.80;;;15.80;96.70;;;;;;4919763;29;20130;-65
2022/11/01 09:04:48;;;;;;;19.92;12.98;;;15.90;96.60;;;;;;4923599;29;20139;-65
2022/11/01 09:07:13;;;;;;;24.00;12.25;;;15.90;96.40;;;;;;4922276;29;20043;-65
2022/11/01 09:09:39;;;;;;;21.77;12.70;;;16.00;96.30;;;;;;4922024;29;20035;-64
2022/11/01 09:12:06;;;;;;;26.67;14.13;;;16.00;96.50;;;;;;4920091;29;20039;-65
2022/11/01 09:14:32;;;;;;;18.00;12.20;;;16.00;96.40;;;;;;4920246;29;20024;-65
2022/11/01 09:16:57;;;;;;;16.88;11.20;;;16.10;96.40;;;;;;4916916;29;20114;-66
2022/11/01 09:19:23;;;;;;;25.30;12.93;;;16.10;96.50;;;;;;4920847;29;20110;-64
2022/11/01 09:21:49;;;;;;;19.67;12.60;;;16.20;96.50;;;;;;4915458;29;20097;-65
2022/11/01 09:24:16;;;;;;;21.10;12.60;;;16.30;96.40;;;;;;4918425;29;20063;-64
2022/11/01 09:26:42;;;;;;;22.63;12.75;;;16.30;96.40;;;;;;4920789;29;20038;-64
2022/11/01 09:29:09;;;;;;;18.77;13.25;;;16.30;96.30;;;;;;4919187;29;20039;-64
2022/11/01 09:31:35;;;;;;;21.13;13.45;;;16.40;96.10;;;;;;4923130;29;20039;-64
2022/11/01 09:34:01;;;;;;;23.95;12.35;;;16.30;96.20;;;;;;4919955;29;20139;-64
2022/11/01 09:36:28;;;;;;;22.73;12.60;;;16.20;96.20;;;;;;4923351;29;20034;-65
2022/11/01 09:38:55;;;;;;;20.67;13.13;;;16.20;96.60;;;;;;4918537;29;20477;-65
2022/11/01 09:41:42;;;;;;;18.08;11.88;;;16.20;96.60;;;;;;4919424;29;20032;-64
2022/11/01 09:44:13;;;;;;;22.08;13.63;;;16.20;96.50;;;;;;4917471;29;20078;-63
2022/11/01 09:46:50;;;;;;;20.73;12.68;;;16.30;96.50;;;;;;4921407;29;20181;-65
2022/11/01 09:49:24;;;;;;;24.20;12.63;;;16.30;96.50;;;;;;4920700;29;20138;-65
2022/11/01 09:51:50;;;;;;;19.13;12.65;;;16.30;96.50;;;;;;4921513;29;20079;-65
2022/11/01 09:54:19;;;;;;;25.73;13.23;;;16.40;96.60;;;;;;4919065;29;20131;-65
2022/11/01 09:57:15;;;;;;;19.55;12.15;;;16.30;96.50;;;;;;4920904;29;20373;-64
2022/11/01 09:59:49;;;;;;;21.55;12.48;;;16.40;96.70;;;;;;4918587;29;20070;-65
2022/11/01 10:02:35;;;;;;;17.33;10.82;;;16.40;96.60;;;;;;4916517;29;20056;-65
2022/11/01 10:05:15;;;;;;;19.33;11.47;;;16.40;96.70;;;;;;4919346;29;20525;-68
2022/11/01 10:07:53;;;;;;;17.48;9.93;;;16.50;96.70;;;;;;4921523;29;20223;-68
2022/11/01 10:10:38;;;;;;;12.27;7.95;;;16.60;96.80;;;;;;4920459;29;20038;-67
2022/11/01 10:13:43;;;;;;;12.90;8.35;;;16.60;97.00;;;;;;4921063;29;21075;-68
2022/11/01 10:16:35;;;;;;;16.20;9.48;;;16.70;97.10;;;;;;4916950;29;20062;-68
2022/11/01 10:19:13;;;;;;;15.35;8.15;;;16.80;97.20;;;;;;4919745;29;20468;-68
2022/11/01 10:21:43;;;;;;;11.93;7.97;;;16.80;97.40;;;;;;4917231;29;20110;-64
2022/11/01 10:24:29;;;;;;;17.48;10.55;;;16.90;97.60;;;;;;4916837;29;20066;-65
2022/11/01 10:27:24;;;;;;;20.75;10.13;;;16.90;97.80;;;;;;4918495;29;20118;-65
2022/11/01 10:30:15;;;;;;;15.30;10.20;;;17.00;97.90;;;;;;4919444;29;20730;-65
2022/11/01 10:32:53;;;;;;;13.02;9.15;;;17.00;97.90;;;;;;4918406;29;20812;-66
2022/11/01 10:35:32;;;;;;;13.98;9.02;;;17.10;97.80;;;;;;4918712;29;20036;-69
2022/11/01 10:38:13;;;;;;;15.48;9.07;;;17.30;97.90;;;;;;4921694;29;20126;-69
2022/11/01 10:41:03;;;;;;;21.63;8.93;;;17.40;97.10;;;;;;4917607;29;20126;-69
2022/11/01 10:43:33;;;;;;;16.85;8.55;;;17.50;96.90;;;;;;4921741;29;20142;-69
2022/11/01 10:46:02;;;;;;;15.35;6.93;;;17.60;96.70;;;;;;4917790;29;20043;-69
2022/11/01 10:48:33;;;;;;;17.40;8.45;;;17.70;96.60;;;;;;4924414;28;20034;-69
2022/11/01 10:51:02;;;;;;;11.80;7.43;;;17.70;96.50;;;;;;4921784;29;20047;-68
2022/11/01 10:53:32;;;;;;;14.65;7.55;;;17.80;96.30;;;;;;4922378;29;20032;-69
2022/11/01 10:56:04;;;;;;;23.17;8.52;;;17.80;95.80;;;;;;4925817;29;20071;-69
2022/11/01 10:59:10;;;;;;;12.43;7.28;;;17.80;95.90;;;;;;4921661;29;20040;-69
2022/11/01 11:01:41;;;;;;;13.52;8.25;;;17.90;96.50;;;;;;4876897;29;20105;-69
2022/11/01 11:04:12;;;;;;;14.18;7.85;;;17.90;96.20;;;;;;4915239;29;20051;-69
2022/11/01 11:06:39;;;;;;;17.63;7.38;;;17.90;96.30;;;;;;4922901;29;20036;-69
2022/11/01 11:09:05;;;;;;;11.88;7.13;;;18.00;96.40;;;;;;4923382;29;20055;-69
2022/11/01 11:11:37;;;;;;;15.52;7.55;;;18.10;96.20;;;;;;4925045;29;20064;-68
2022/11/01 11:14:06;;;;;;;11.38;6.47;;;18.10;96.00;;;;;;4920235;29;20135;-69
2022/11/01 11:16:41;;;;;;;17.42;7.88;;;18.00;96.10;;;;;;4923515;29;20032;-69
2022/11/01 11:19:07;;;;;;;15.93;7.47;;;17.90;96.50;;;;;;4920595;29;20036;-69
2022/11/01 11:21:33;;;;;;;13.02;7.03;;;17.90;96.70;;;;;;4922335;29;20047;-69
2022/11/01 11:24:00;;;;;;;15.93;7.18;;;17.90;96.70;;;;;;4922075;29;20103;-73
2022/11/01 11:26:26;;;;;;;13.65;6.53;;;17.90;96.50;;;;;;4922927;29;20492;-69
2022/11/01 11:28:55;;;;;;;19.75;6.72;;;18.00;96.40;;;;;;4921932;29;20032;-70
2022/11/01 11:31:30;;;;;;;12.80;6.13;;;18.00;96.40;;;;;;4923681;29;20027;-70
2022/11/01 11:33:58;;;;;;;12.77;6.78;;;18.00;96.10;;;;;;4917672;29;20115;-70
2022/11/01 11:36:34;;;;;;;16.15;6.43;;;18.00;96.30;;;;;;4922009;29;20401;-70
2022/11/01 11:39:01;;;;;;;13.55;5.95;;;18.00;96.50;;;;;;4884333;29;1122963;-70
2022/11/01 11:41:38;;;;;;;9.77;5.60;;;18.00;96.40;;;;;;4925035;29;20098;-76
2022/11/01 11:44:32;;;;;;;13.27;5.10;;;18.00;96.30;;;;;;4924574;29;20074;-69
2022/11/01 11:46:58;;;;;;;10.68;5.60;;;18.00;96.40;;;;;;4921090;29;20566;-70
2022/11/01 11:49:27;;;;;;;13.27;6.43;;;18.00;96.60;;;;;;4923569;29;20036;-70
2022/11/01 11:51:53;;;;;;;13.25;5.53;;;17.90;96.70;;;;;;4923639;29;20047;-69
2022/11/01 11:54:30;;;;;;;9.23;5.88;;;17.90;96.90;;;;;;4920799;29;20036;-69
2022/11/01 11:57:10;;;;;;;13.35;6.50;;;17.90;97.30;;;;;;4925086;29;20099;-70
2022/11/01 11:59:37;;;;;;;14.68;6.20;;;17.90;97.60;;;;;;4920548;29;20036;-69
2022/11/01 12:02:05;;;;;;;12.70;6.13;;;17.80;97.70;;;;;;4923936;29;20393;-69
2022/11/01 12:04:40;;;;;;;11.70;6.60;;;17.80;97.80;;;;;;4925735;29;20472;-68
2022/11/01 12:07:31;;;;;;;11.07;5.85;;;17.80;97.90;;;;;;4922268;29;20066;-69
2022/11/01 12:10:01;;;;;;;11.35;7.63;;;17.80;97.90;;;;;;4925349;29;20083;-69
2022/11/01 12:12:39;;;;;;;13.10;6.30;;;17.80;98.10;;;;;;4925605;29;20101;-70
2022/11/01 12:15:33;;;;;;;10.50;6.10;;;17.90;98.00;;;;;;4921831;29;20067;-78
2022/11/01 12:18:25;;;;;;;14.98;6.25;;;17.90;97.40;;;;;;4917534;29;20094;-70
2022/11/01 12:20:52;;;;;;;9.70;5.07;;;17.90;97.60;;;;;;4922891;29;20047;-75
2022/11/01 12:23:29;;;;;;;10.77;5.55;;;18.00;97.50;;;;;;4921783;29;20044;-71
2022/11/01 12:25:58;;;;;;;12.48;6.38;;;17.90;97.50;;;;;;4916217;29;20711;-71
2022/11/01 12:28:33;;;;;;;11.32;5.30;;;17.90;97.70;;;;;;4921585;29;20024;-70
2022/11/01 12:31:04;;;;;;;13.65;6.15;;;17.90;97.20;;;;;;4920794;29;20039;-72
2022/11/01 12:33:36;;;;;;;9.45;5.72;;;17.90;97.40;;;;;;4922573;29;20039;-70
2022/11/01 12:36:02;;;;;;;14.15;6.22;;;17.90;97.90;;;;;;4920754;29;20037;-71
2022/11/01 12:38:44;;;;;;;11.13;6.05;;;18.00;97.80;;;;;;4923455;29;20514;-72
2022/11/01 12:41:30;;;;;;;13.10;5.95;;;18.20;97.70;;;;;;4923695;29;20451;-71
2022/11/01 12:43:58;;;;;;;10.68;5.25;;;18.10;97.20;;;;;;4921178;29;20499;-70
2022/11/01 12:46:31;;;;;;;11.90;5.15;;;18.20;97.00;;;;;;4915123;29;20132;-72
2022/11/01 12:49:04;;;;;;;11.13;5.18;;;18.20;96.90;;;;;;4926381;29;20067;-71
2022/11/01 12:51:42;;;;;;;11.13;5.55;;;18.20;96.70;;;;;;4922801;29;20404;-72
2022/11/01 12:54:26;;;;;;;12.43;5.80;;;18.30;96.70;;;;;;4922820;29;20057;-70